Time;durP1;ratioP1;P1;durP2;ratioP2;P2;SDS_P1;SDS_P2;PMS_P1;PMS_P2;Temp;Humidity;BMP_temperature;BMP_pressure;BME280_temperature;BME280_humidity;BME280_pressure;Samples;Min_cycle;Max_cycle;Signal;HPM_P1;HPM_P2
2022/04/02 00:02:06;;;;;;;15.05;6.15;;;;;;;10.06;100.00;95353.81;4984951;28;20362;-59
2022/04/02 00:04:32;;;;;;;12.68;5.97;;;;;;;9.55;100.00;95270.88;4984976;28;20525;-65
2022/04/02 00:06:59;;;;;;;12.93;5.85;;;;;;;9.90;100.00;95334.19;4986449;28;20058;-59
2022/04/02 00:09:26;;;;;;;14.48;6.72;;;;;;;10.15;100.00;95339.53;4984767;28;20065;-67
2022/04/02 00:11:53;;;;;;;17.02;6.57;;;;;;;9.98;100.00;95344.00;4985017;28;20062;-58
2022/04/02 00:14:20;;;;;;;14.65;6.28;;;;;;;10.00;100.00;95344.38;4986588;28;20058;-65
2022/04/02 00:16:46;;;;;;;14.18;6.60;;;;;;;9.25;100.00;95226.50;4986310;28;20050;-60
2022/04/02 00:19:13;;;;;;;10.93;6.57;;;;;;;9.13;100.00;95213.19;4984631;28;20481;-58
2022/04/02 00:21:40;;;;;;;14.48;7.20;;;;;;;9.93;100.00;95327.84;4984673;28;20509;-65
2022/04/02 00:24:07;;;;;;;12.98;5.80;;;;;;;9.63;100.00;95293.72;5001046;28;20054;-66
2022/04/02 00:26:34;;;;;;;12.02;6.25;;;;;;;10.01;100.00;95334.88;4986044;28;20508;-58
2022/04/02 00:29:02;;;;;;;14.20;7.07;;;;;;;10.02;100.00;95335.69;4984738;28;20046;-64
2022/04/02 00:31:29;;;;;;;10.75;5.40;;;;;;;9.64;100.00;95279.47;4986161;28;20057;-64
2022/04/02 00:33:56;;;;;;;11.75;5.20;;;;;;;9.97;100.00;95317.56;4985722;28;20142;-65
2022/04/02 00:36:23;;;;;;;14.88;4.93;;;;;;;9.93;100.00;95299.38;4986414;28;20070;-65
2022/04/02 00:38:50;;;;;;;11.85;5.18;;;;;;;10.03;100.00;95351.88;4985723;28;20061;-64
2022/04/02 00:41:17;;;;;;;15.00;4.38;;;;;;;9.90;100.00;95348.00;4985738;28;20363;-58
2022/04/02 00:43:59;;;;;;;10.57;5.35;;;;;;;9.83;100.00;95345.28;4984272;28;20138;-64
2022/04/02 00:46:26;;;;;;;9.95;5.05;;;;;;;9.41;100.00;95279.28;4985506;28;20046;-58
2022/04/02 00:48:54;;;;;;;12.40;5.30;;;;;;;9.70;100.00;95340.66;4985410;28;20054;-64
2022/04/02 00:51:22;;;;;;;12.27;6.20;;;;;;;9.58;100.00;95350.22;4985305;28;20404;-61
2022/04/02 00:53:51;;;;;;;10.13;5.60;;;;;;;9.12;100.00;95344.16;4985707;28;20084;-62
2022/04/02 00:56:18;;;;;;;14.45;6.57;;;;;;;8.98;100.00;95339.50;4985265;28;20050;-65
2022/04/02 00:58:45;;;;;;;14.48;7.07;;;;;;;8.78;100.00;95290.69;4985262;28;20548;-65
2022/04/02 01:01:13;;;;;;;22.33;8.02;;;;;;;9.25;100.00;95347.28;4996819;28;20050;-60
2022/04/02 01:03:40;;;;;;;19.63;9.23;;;;;;;8.95;100.00;95309.13;5003590;28;20578;-66
2022/04/02 01:06:09;;;;;;;19.13;6.85;;;;;;;9.34;100.00;95342.88;5004581;28;20069;-66
2022/04/02 01:08:37;;;;;;;13.32;6.28;;;;;;;7.81;100.00;95149.22;5003388;28;20054;-62
2022/04/02 01:11:04;;;;;;;14.52;6.40;;;;;;;8.93;100.00;95254.31;5005108;28;20184;-59
2022/04/02 01:13:32;;;;;;;10.27;5.32;;;;;;;9.34;100.00;95340.13;5005368;28;20045;-60
2022/04/02 01:15:58;;;;;;;9.20;4.80;;;;;;;9.39;100.00;95353.50;5002919;28;20596;-62
2022/04/02 01:18:25;;;;;;;13.32;4.70;;;;;;;9.37;100.00;95349.56;5003321;28;20149;-57
2022/04/02 01:20:53;;;;;;;11.20;6.18;;;;;;;9.39;100.00;95363.78;5004193;28;20489;-61
2022/04/02 01:23:28;;;;;;;29.98;12.85;;;;;;;8.91;100.00;95278.00;5004424;28;20097;-67
2022/04/02 01:26:00;;;;;;;36.17;13.07;;;;;;;9.43;100.00;95365.31;5002792;28;20567;-66
2022/04/02 01:28:33;;;;;;;29.83;12.57;;;;;;;9.43;100.00;95365.31;5019800;28;20512;-65
2022/04/02 01:31:04;;;;;;;26.92;10.02;;;;;;;9.46;100.00;95353.47;5003672;28;20420;-66
2022/04/02 01:33:31;;;;;;;20.98;6.20;;;;;;;9.40;100.00;95360.59;5004924;28;20054;-67
2022/04/02 01:35:59;;;;;;;12.20;5.43;;;;;;;9.35;100.00;95352.75;5004356;28;20050;-65
2022/04/02 01:38:27;;;;;;;14.10;5.80;;;;;;;8.55;100.00;95232.47;5004161;28;20054;-59
2022/04/02 01:40:56;;;;;;;14.43;5.07;;;;;;;9.38;100.00;95362.97;5004017;28;20061;-59
2022/04/02 01:43:24;;;;;;;13.15;5.32;;;;;;;9.28;100.00;95365.81;5002947;28;20499;-60
2022/04/02 01:45:55;;;;;;;13.00;5.05;;;;;;;9.14;100.00;95363.88;5002783;28;20058;-58
2022/04/02 01:48:22;;;;;;;13.95;5.45;;;;;;;9.12;100.00;95371.78;5004278;28;20114;-61
2022/04/02 01:50:50;;;;;;;14.90;5.05;;;;;;;8.26;100.00;95291.66;5004473;28;20108;-66
2022/04/02 01:53:18;;;;;;;13.77;4.82;;;;;;;8.85;100.00;95379.00;5004425;28;20054;-65
2022/04/02 01:55:45;;;;;;;10.30;5.00;;;;;;;8.95;100.00;95390.00;5003357;28;20064;-66
2022/04/02 01:58:13;;;;;;;13.73;5.32;;;;;;;8.88;100.00;95389.25;5004034;28;20061;-59
2022/04/02 02:00:40;;;;;;;10.65;5.13;;;;;;;8.79;100.00;95405.44;4996428;28;20512;-65
2022/04/02 02:03:07;;;;;;;13.52;4.63;;;;;;;8.83;100.00;95397.94;4984444;28;20056;-60
2022/04/02 02:05:35;;;;;;;14.07;5.88;;;;;;;8.69;100.00;95354.59;4982734;28;20129;-59
2022/04/02 02:08:03;;;;;;;10.52;5.07;;;;;;;8.91;100.00;95391.22;4982643;28;20061;-65
2022/04/02 02:10:30;;;;;;;12.80;5.75;;;;;;;8.94;100.00;95398.69;4984461;28;20061;-64
2022/04/02 02:12:57;;;;;;;15.82;6.10;;;;;;;8.96;100.00;95390.81;4989426;28;20057;-60
2022/04/02 02:15:26;;;;;;;12.52;7.20;;;;;;;8.48;100.00;95321.56;5002437;28;20065;-60
2022/04/02 02:17:53;;;;;;;12.13;6.80;;;;;;;9.03;100.00;95399.03;5002362;28;20433;-66
2022/04/02 02:20:21;;;;;;;21.95;9.45;;;;;;;8.62;100.00;95353.84;5003779;28;20049;-66
2022/04/02 02:22:50;;;;;;;13.38;6.57;;;;;;;9.04;100.00;95392.34;5004214;28;20507;-65
2022/04/02 02:25:18;;;;;;;12.43;5.30;;;;;;;8.61;100.00;95331.00;5003996;28;20057;-59
2022/04/02 02:27:45;;;;;;;9.82;4.60;;;;;;;9.03;100.00;95396.28;5004310;28;20160;-66
2022/04/02 02:30:14;;;;;;;11.07;4.53;;;;;;;9.05;100.00;95391.16;5003716;28;20088;-61
2022/04/02 02:32:41;;;;;;;7.82;4.20;;;;;;;8.81;100.00;95379.00;5018663;28;20050;-58
2022/04/02 02:38:11;;;;;;;11.45;5.20;;;;;;;8.75;100.00;95402.69;5003550;28;20046;-59
2022/04/02 02:40:39;;;;;;;10.02;3.97;;;;;;;8.52;100.00;95387.78;5003347;28;20065;-59
2022/04/02 02:43:07;;;;;;;6.90;4.13;;;;;;;8.31;100.00;95352.75;5003745;28;20093;-59
2022/04/02 02:45:35;;;;;;;7.63;3.97;;;;;;;8.37;100.00;95358.63;5001687;28;20591;-60
2022/04/02 02:48:04;;;;;;;8.18;3.88;;;;;;;8.44;100.00;95386.97;5002263;28;20584;-66
2022/04/02 02:50:33;;;;;;;7.80;3.20;;;;;;;8.16;100.00;95342.06;5003381;28;20209;-65
2022/04/02 02:53:00;;;;;;;8.25;4.22;;;;;;;8.53;100.00;95400.38;5003802;28;20151;-58
2022/04/02 02:55:28;;;;;;;7.47;4.15;;;;;;;8.46;100.00;95392.91;5003598;28;20058;-59
2022/04/02 02:57:55;;;;;;;10.80;4.43;;;;;;;8.36;100.00;95395.69;5003791;28;20045;-66
2022/04/02 03:00:23;;;;;;;16.10;4.68;;;;;;;8.35;100.00;95399.59;5007841;28;20042;-59
2022/04/02 03:02:49;;;;;;;9.93;4.07;;;;;;;8.18;100.00;95368.09;5021560;28;20057;-66
2022/04/02 03:05:17;;;;;;;10.43;4.07;;;;;;;7.94;100.00;95362.56;5021929;28;20054;-60
2022/04/02 03:07:49;;;;;;;7.63;3.75;;;;;;;7.81;100.00;95347.63;5021822;28;20516;-60
2022/04/02 03:10:25;;;;;;;11.05;4.18;;;;;;;8.30;100.00;95419.34;5023526;28;20056;-59
2022/04/02 03:12:53;;;;;;;7.75;3.97;;;;;;;8.32;100.00;95433.50;5021787;28;20063;-67
2022/04/02 03:15:21;;;;;;;13.40;5.38;;;;;;;8.29;100.00;95428.78;5022704;28;20049;-66
2022/04/02 03:17:48;;;;;;;16.10;7.15;;;;;;;7.99;100.00;95393.31;5023400;28;20054;-59
2022/04/02 03:20:17;;;;;;;16.48;7.88;;;;;;;7.38;100.00;95281.47;5022445;28;20168;-60
2022/04/02 03:22:45;;;;;;;21.00;8.93;;;;;;;8.37;100.00;95435.88;5026880;28;20049;-58
2022/04/02 03:25:15;;;;;;;18.17;6.53;;;;;;;8.25;100.00;95444.53;5026535;28;20417;-59
2022/04/02 03:27:46;;;;;;;14.75;5.72;;;;;;;8.18;100.00;95439.00;5027127;28;20053;-66
2022/04/02 03:30:18;;;;;;;18.73;7.55;;;;;;;8.21;100.00;95452.78;5026429;28;20354;-59
2022/04/02 03:32:46;;;;;;;16.15;8.48;;;;;;;8.24;100.00;95453.97;5026736;28;20060;-66
2022/04/02 03:35:17;;;;;;;22.17;8.95;;;;;;;8.25;100.00;95450.84;5026107;28;20049;-65
2022/04/02 03:37:47;;;;;;;20.80;8.88;;;;;;;5.54;100.00;95030.44;5026648;28;20480;-65
2022/04/02 03:40:17;;;;;;;17.00;8.23;;;;;;;8.24;100.00;95448.47;5025839;28;20488;-60
2022/04/02 03:42:45;;;;;;;20.88;8.25;;;;;;;8.16;100.00;95449.63;5026807;28;20056;-66
2022/04/02 03:45:16;;;;;;;14.40;7.38;;;;;;;8.09;100.00;95446.88;5026262;28;20068;-59
2022/04/02 03:47:44;;;;;;;21.00;8.10;;;;;;;8.06;100.00;95459.47;5026571;28;20103;-66
2022/04/02 03:50:11;;;;;;;15.55;6.80;;;;;;;7.69;100.00;95407.47;5025003;28;20049;-67
2022/04/02 03:52:38;;;;;;;14.25;5.65;;;;;;;8.11;100.00;95450.03;5026549;28;20076;-66
2022/04/02 03:55:06;;;;;;;18.77;8.95;;;;;;;7.99;100.00;95458.66;5024782;28;20512;-65
2022/04/02 03:57:34;;;;;;;24.17;10.65;;;;;;;7.95;100.00;95461.41;5025839;28;20546;-59
2022/04/02 04:00:03;;;;;;;17.25;6.65;;;;;;;8.00;100.00;95457.50;5025577;28;20064;-66
2022/04/02 04:02:30;;;;;;;96.80;33.83;;;;;;;7.46;100.00;95395.97;5025920;28;20072;-60
2022/04/02 04:04:58;;;;;;;27.60;11.15;;;;;;;7.55;100.00;95407.44;5025788;28;20053;-66
2022/04/02 04:07:25;;;;;;;19.17;6.28;;;;;;;7.87;100.00;95465.38;5025774;28;20053;-59
2022/04/02 04:09:51;;;;;;;17.52;6.13;;;;;;;7.66;100.00;95448.78;5025321;28;20061;-58
2022/04/02 04:12:19;;;;;;;19.83;6.82;;;;;;;7.69;100.00;95467.28;5025210;28;20065;-65
2022/04/02 04:14:45;;;;;;;20.33;7.30;;;;;;;7.28;100.00;95397.94;5024391;28;20504;-65
2022/04/02 04:17:13;;;;;;;16.58;6.45;;;;;;;7.88;100.00;95485.44;5025825;28;20570;-66
2022/04/02 04:19:40;;;;;;;17.92;7.20;;;;;;;7.85;100.00;95475.19;5024353;28;20046;-58
2022/04/02 04:22:06;;;;;;;16.63;6.57;;;;;;;7.66;100.00;95457.84;5025475;28;20534;-66
2022/04/02 04:24:33;;;;;;;16.52;7.45;;;;;;;7.75;100.00;95454.69;5025165;28;20056;-66
2022/04/02 04:27:00;;;;;;;28.25;11.25;;;;;;;8.03;100.00;95504.34;5023696;28;20504;-59
2022/04/02 04:29:27;;;;;;;15.80;6.60;;;;;;;7.82;100.00;95522.81;5025173;28;20766;-60
2022/04/02 04:31:54;;;;;;;14.00;6.15;;;;;;;7.77;100.00;95512.19;5022653;28;20046;-58
2022/04/02 04:34:21;;;;;;;9.90;4.75;;;;;;;7.15;100.00;95519.78;5024043;28;20056;-65
2022/04/02 04:36:48;;;;;;;11.27;4.90;;;;;;;7.55;100.00;95539.69;5025361;28;20080;-59
2022/04/02 04:39:15;;;;;;;20.45;7.05;;;;;;;7.82;100.00;95542.13;5024933;28;20480;-66
2022/04/02 04:41:42;;;;;;;78.18;14.70;;;;;;;7.57;100.00;95495.97;5024922;28;20057;-65
2022/04/02 04:44:09;;;;;;;103.70;13.35;;;;;;;7.96;100.00;95536.66;5022282;28;20045;-60
2022/04/02 04:46:35;;;;;;;145.27;16.27;;;;;;;8.00;100.00;95532.72;5004923;28;20722;-67
2022/04/02 04:49:02;;;;;;;99.90;15.20;;;;;;;7.97;100.00;95518.91;5003426;28;20448;-60
2022/04/02 04:51:29;;;;;;;23.55;10.98;;;;;;;8.21;100.00;95537.47;5003190;28;20053;-62
2022/04/02 04:53:56;;;;;;;29.50;11.32;;;;;;;8.24;100.00;95558.78;5005064;28;20092;-67
2022/04/02 04:56:26;;;;;;;17.00;9.40;;;;;;;8.18;100.00;95555.63;5004979;28;20079;-66
2022/04/02 04:58:53;;;;;;;18.55;9.30;;;;;;;8.23;100.00;95551.72;5005336;28;20589;-67
2022/04/02 05:01:20;;;;;;;28.88;7.78;;;;;;;8.36;100.00;95561.19;5013459;28;20412;-67
2022/04/02 05:03:47;;;;;;;21.52;10.23;;;;;;;8.35;100.00;95554.06;5024513;28;20135;-66
2022/04/02 05:06:14;;;;;;;19.67;10.38;;;;;;;8.55;100.00;95585.66;5024820;28;20060;-60
2022/04/02 05:08:41;;;;;;;16.27;9.18;;;;;;;8.64;100.00;95550.97;5022952;28;20558;-61
2022/04/02 05:11:10;;;;;;;20.00;10.98;;;;;;;8.85;100.00;95577.78;5022839;28;20519;-67
2022/04/02 05:13:39;;;;;;;25.48;14.13;;;;;;;8.90;100.00;95569.09;5024677;28;20500;-60
2022/04/02 05:16:06;;;;;;;24.73;12.35;;;;;;;8.86;100.00;95562.78;5024577;28;20050;-67
2022/04/02 05:18:33;;;;;;;25.92;13.05;;;;;;;8.94;100.00;95556.88;5023470;28;20144;-61
2022/04/02 05:21:02;;;;;;;21.85;10.80;;;;;;;8.64;100.00;95492.22;5024405;28;20059;-61
2022/04/02 05:23:30;;;;;;;19.98;10.52;;;;;;;8.79;100.00;95502.03;5024289;28;20049;-61
2022/04/02 05:25:58;;;;;;;25.17;12.60;;;;;;;9.30;100.00;95565.88;5023859;28;20053;-60
2022/04/02 05:28:25;;;;;;;20.23;11.65;;;;;;;9.50;100.00;95564.25;5022552;28;20057;-60
2022/04/02 05:30:51;;;;;;;19.90;11.05;;;;;;;9.71;100.00;95568.91;5023550;28;20057;-60
2022/04/02 05:33:19;;;;;;;21.88;11.18;;;;;;;9.83;100.00;95566.50;5022715;28;20053;-61
2022/04/02 05:36:05;;;;;;;15.25;8.90;;;;;;;9.91;100.00;95551.47;5023005;28;20056;-60
2022/04/02 05:38:32;;;;;;;14.43;8.35;;;;;;;9.94;100.00;95564.47;5024145;28;20444;-62
2022/04/02 05:40:59;;;;;;;13.73;8.18;;;;;;;9.94;100.00;95567.25;5023781;28;20060;-60
2022/04/02 05:43:26;;;;;;;11.60;6.13;;;;;;;9.99;100.00;95561.28;5023693;28;20049;-60
2022/04/02 05:45:52;;;;;;;14.52;6.43;;;;;;;10.02;100.00;95554.97;5023781;28;21381;-60
2022/04/02 05:48:20;;;;;;;14.75;6.97;;;;;;;9.98;100.00;95556.16;5022545;28;20119;-67
2022/04/02 05:50:48;;;;;;;18.05;8.20;;;;;;;10.11;100.00;95583.03;5021975;28;20089;-68
2022/04/02 05:53:14;;;;;;;15.02;8.82;;;;;;;10.03;100.00;95539.94;5023645;28;20060;-61
2022/04/02 05:55:42;;;;;;;19.10;10.85;;;;;;;10.37;100.00;95562.31;5023307;28;20060;-68
2022/04/02 05:58:12;;;;;;;23.00;15.45;;;;;;;9.54;100.00;95426.84;5023928;28;20210;-68
2022/04/02 06:00:39;;;;;;;21.42;14.40;;;;;;;10.07;100.00;95499.25;5013786;28;20340;-61
2022/04/02 06:03:06;;;;;;;26.45;15.57;;;;;;;10.73;100.00;95569.97;5008455;28;20056;-70
2022/04/02 06:05:33;;;;;;;31.70;17.50;;;;;;;11.00;100.00;95569.38;5005872;28;20050;-60
2022/04/02 06:08:00;;;;;;;26.88;16.30;;;;;;;11.00;100.00;95511.19;5022372;28;20054;-61
2022/04/02 06:10:26;;;;;;;24.08;11.95;;;;;;;11.02;100.00;95465.25;5015660;28;20071;-61
2022/04/02 06:12:53;;;;;;;20.40;11.40;;;;;;;11.19;100.00;95453.19;5013127;28;20073;-74
2022/04/02 06:15:21;;;;;;;16.55;9.55;;;;;;;12.05;97.76;95562.72;5009638;28;20075;-67
2022/04/02 06:17:48;;;;;;;16.27;10.40;;;;;;;12.00;95.03;95563.19;5015101;28;20077;-60
2022/04/02 06:20:15;;;;;;;20.08;12.15;;;;;;;12.03;94.70;95537.38;5009896;28;20069;-63
2022/04/02 06:22:42;;;;;;;19.08;12.48;;;;;;;11.46;95.70;95478.25;5008907;28;20051;-68
2022/04/02 06:25:10;;;;;;;21.90;14.50;;;;;;;11.82;100.00;95543.97;5010522;28;20054;-67
2022/04/02 06:27:54;;;;;;;22.70;13.05;;;;;;;11.70;100.00;95527.09;5009903;28;20417;-61
2022/04/02 06:30:22;;;;;;;18.58;9.98;;;;;;;12.29;100.00;95585.81;5013972;28;20057;-64
2022/04/02 06:32:54;;;;;;;13.32;8.60;;;;;;;12.03;100.00;95573.44;5021221;28;20061;-62
2022/04/02 06:35:21;;;;;;;13.05;7.85;;;;;;;10.47;100.00;95291.00;5021664;28;20489;-61
2022/04/02 06:37:50;;;;;;;12.65;6.53;;;;;;;12.24;100.00;95578.75;5009224;28;20041;-67
2022/04/02 06:40:17;;;;;;;12.25;7.18;;;;;;;12.09;100.00;95580.13;5013001;28;20085;-64
2022/04/02 06:42:44;;;;;;;13.50;6.70;;;;;;;12.25;100.00;95585.84;5017857;28;20080;-60
2022/04/02 06:45:11;;;;;;;17.95;6.07;;;;;;;12.27;100.00;95600.13;5008317;28;20069;-75
2022/04/02 06:47:38;;;;;;;12.15;6.15;;;;;;;11.92;100.00;95556.94;5020198;28;20059;-65
2022/04/02 06:50:08;;;;;;;12.75;5.63;;;;;;;12.34;100.00;95577.81;5020304;28;20049;-65
2022/04/02 06:52:36;;;;;;;15.13;7.07;;;;;;;12.79;100.00;95598.59;5017118;28;20510;-60
2022/04/02 06:55:03;;;;;;;15.40;6.72;;;;;;;12.52;100.00;95558.13;5015201;28;20050;-58
2022/04/02 06:57:30;;;;;;;11.68;6.72;;;;;;;12.71;97.17;95560.25;5015444;28;20421;-58
2022/04/02 06:59:57;;;;;;;11.07;6.15;;;;;;;12.79;97.44;95604.16;5019723;28;20073;-63
2022/04/02 07:02:24;;;;;;;16.40;6.50;;;;;;;12.36;99.89;95522.63;5022698;28;20054;-63
2022/04/02 07:04:51;;;;;;;18.65;7.40;;;;;;;13.35;94.69;95608.84;5025675;28;20451;-60
2022/04/02 07:07:17;;;;;;;10.68;6.57;;;;;;;13.32;92.58;95558.84;5026799;28;20057;-59
2022/04/02 07:09:44;;;;;;;12.52;7.18;;;;;;;13.96;91.66;95614.91;5014585;28;20522;-68
2022/04/02 07:12:12;;;;;;;10.88;6.22;;;;;;;13.75;87.93;95519.91;5007599;28;20050;-58
2022/04/02 07:14:38;;;;;;;10.63;5.72;;;;;;;14.57;85.06;95609.72;5025705;28;20053;-62
2022/04/02 07:17:06;;;;;;;7.93;5.15;;;;;;;14.24;80.65;95502.16;5024524;28;20045;-63
2022/04/02 07:19:34;;;;;;;11.20;5.20;;;;;;;15.13;78.34;95597.25;5017553;28;20083;-62
2022/04/02 07:22:01;;;;;;;15.88;6.45;;;;;;;15.20;74.71;95569.22;5009940;28;20054;-61
2022/04/02 07:24:29;;;;;;;6.88;4.40;;;;;;;15.60;69.07;95598.50;5010002;28;20049;-63
2022/04/02 07:26:56;;;;;;;7.10;5.28;;;;;;;15.63;71.44;95564.16;5014787;28;20524;-60
2022/04/02 07:29:24;;;;;;;12.63;5.65;;;;;;;15.54;71.57;95522.09;5005192;28;20721;-68
2022/04/02 07:31:51;;;;;;;10.45;5.50;;;;;;;15.56;68.41;95491.75;5013616;28;20049;-63
2022/04/02 07:34:20;;;;;;;6.88;4.55;;;;;;;16.41;65.53;95579.50;5025873;28;20084;-61
2022/04/02 07:37:06;;;;;;;5.70;3.25;;;;;;;16.66;59.67;95601.94;5022963;28;20056;-61
2022/04/02 07:39:45;;;;;;;5.22;2.70;;;;;;;16.25;55.45;95538.44;5020953;28;20056;-66
2022/04/02 07:42:33;;;;;;;2.67;2.30;;;;;;;16.43;53.61;95565.88;5009087;28;20049;-58
2022/04/02 07:45:08;;;;;;;2.10;2.00;;;;;;;16.29;52.64;95530.75;5013250;28;20050;-58
2022/04/02 07:47:37;;;;;;;3.13;2.15;;;;;;;16.63;50.93;95581.25;5007636;28;20062;-58
2022/04/02 07:50:08;;;;;;;3.80;2.35;;;;;;;16.69;52.12;95581.50;5009737;28;20060;-68
2022/04/02 07:52:39;;;;;;;7.07;2.58;;;;;;;16.86;51.61;95593.38;5012240;28;20052;-68
2022/04/02 07:55:07;;;;;;;8.05;2.38;;;;;;;17.00;51.29;95590.13;5009650;28;20057;-62
2022/04/02 07:57:40;;;;;;;3.00;2.40;;;;;;;17.12;51.01;95592.16;5015327;28;20060;-67
2022/04/02 08:00:10;;;;;;;4.13;2.43;;;;;;;17.08;51.75;95560.72;5012411;28;20054;-64
2022/04/02 08:02:39;;;;;;;6.22;3.47;;;;;;;17.23;51.84;95547.84;5014241;28;20057;-68
2022/04/02 08:05:08;;;;;;;6.07;3.70;;;;;;;17.68;50.18;95581.91;5016849;28;20045;-62
2022/04/02 08:07:36;;;;;;;5.00;2.70;;;;;;;17.83;48.33;95588.63;5008167;28;20050;-60
2022/04/02 08:10:10;;;;;;;3.85;2.60;;;;;;;17.92;47.75;95591.50;5024347;28;20053;-64
2022/04/02 08:12:39;;;;;;;3.60;2.20;;;;;;;17.91;47.27;95596.31;5025805;28;20518;-57
2022/04/02 08:15:11;;;;;;;5.00;2.88;;;;;;;17.93;46.71;95601.47;5018094;28;20079;-58
2022/04/02 08:17:39;;;;;;;2.40;2.20;;;;;;;17.99;47.16;95602.44;5005141;28;20054;-64
2022/04/02 08:20:07;;;;;;;3.00;2.70;;;;;;;17.47;44.04;95502.22;5008473;28;20042;-59
2022/04/02 08:22:34;;;;;;;3.08;2.78;;;;;;;18.08;44.39;95588.53;5011523;28;20049;-68
2022/04/02 08:25:01;;;;;;;2.42;2.33;;;;;;;18.00;43.58;95571.16;5017276;28;20053;-65
2022/04/02 08:27:52;;;;;;;3.70;3.13;;;;;;;18.24;44.23;95588.31;5019324;28;20049;-65
2022/04/02 08:30:31;;;;;;;2.80;2.33;;;;;;;18.37;43.58;95594.66;5004082;28;20050;-67
2022/04/02 08:33:22;;;;;;;2.90;2.70;;;;;;;18.54;43.10;95590.44;5022485;28;20045;-63
2022/04/02 08:36:02;;;;;;;2.75;2.55;;;;;;;18.68;42.78;95592.75;5023700;28;20057;-66
2022/04/02 08:38:46;;;;;;;2.20;2.10;;;;;;;18.73;42.42;95600.53;5025010;28;20100;-65
2022/04/02 08:41:19;;;;;;;2.92;2.20;;;;;;;18.87;41.70;95600.03;5024930;28;20417;-66
2022/04/02 08:44:24;;;;;;;5.40;4.23;;;;;;;18.94;39.66;95588.50;5024098;28;20080;-67
2022/04/02 08:47:12;;;;;;;2.47;2.28;;;;;;;18.92;39.47;95585.38;5041786;28;20067;-61
2022/04/02 08:50:03;;;;;;;2.85;2.60;;;;;;;18.71;38.68;95600.25;5023237;28;20414;-63
2022/04/02 08:52:50;;;;;;;4.70;2.60;;;;;;;18.73;39.51;95591.38;5022905;28;20073;-66
2022/04/02 08:55:20;;;;;;;2.70;2.50;;;;;;;18.76;39.16;95582.78;5022496;28;20544;-66
2022/04/02 08:57:54;;;;;;;5.03;3.20;;;;;;;18.93;39.16;95581.34;5024606;28;20049;-65
2022/04/02 09:00:24;;;;;;;2.55;2.40;;;;;;;19.11;39.45;95569.44;5024265;28;20049;-67
2022/04/02 09:02:57;;;;;;;4.72;2.60;;;;;;;19.17;39.93;95573.19;5020150;28;20079;-66
2022/04/02 09:05:33;;;;;;;3.50;2.40;;;;;;;19.27;36.70;95561.53;5004542;28;20481;-60
2022/04/02 09:08:28;;;;;;;2.70;2.50;;;;;;;19.40;40.22;95565.03;5021012;28;20053;-66
2022/04/02 09:11:10;;;;;;;4.85;2.88;;;;;;;19.57;38.79;95573.19;5024226;28;20061;-59
2022/04/02 09:13:39;;;;;;;24.10;7.85;;;;;;;19.55;39.38;95560.38;5024234;28;20336;-62
2022/04/02 09:16:08;;;;;;;3.20;3.00;;;;;;;19.60;37.16;95550.56;5024403;28;20045;-67
2022/04/02 09:18:44;;;;;;;17.73;5.85;;;;;;;17.13;36.90;95204.81;5023272;28;20057;-65
2022/04/02 09:21:39;;;;;;;15.27;5.88;;;;;;;19.51;36.78;95564.59;5018022;28;20065;-66
2022/04/02 09:24:44;;;;;;;3.15;2.95;;;;;;;19.42;36.79;95576.59;5002456;28;20107;-66
2022/04/02 09:27:44;;;;;;;2.65;1.85;;;;;;;19.34;36.38;95564.09;5002815;28;20524;-66
2022/04/02 09:30:38;;;;;;;2.17;2.08;;;;;;;19.37;36.54;95570.78;5003660;28;20536;-66
2022/04/02 09:33:14;;;;;;;;;;;;;;;19.34;36.38;95569.69;5005094;28;20418;-60
2022/04/02 09:36:13;;;;;;;2.45;2.33;;;;;;;19.40;37.49;95564.25;5004150;28;19957;-60
2022/04/02 09:38:43;;;;;;;2.80;2.60;;;;;;;19.58;35.98;95570.69;5009445;28;20061;-66
2022/04/02 09:41:15;;;;;;;2.97;2.60;;;;;;;19.51;36.25;95579.41;5002587;28;20062;-66
2022/04/02 09:44:21;;;;;;;4.00;2.20;;;;;;;19.51;37.81;95542.91;5004801;28;20049;-60
2022/04/02 09:47:00;;;;;;;5.75;3.45;;;;;;;19.79;33.95;95559.81;5004222;28;20071;-66
2022/04/02 09:50:09;;;;;;;2.33;2.13;;;;;;;19.81;34.64;95566.53;5001873;28;20061;-66
2022/04/02 09:52:41;;;;;;;2.28;2.08;;;;;;;19.92;34.38;95571.69;5004125;28;20049;-61
2022/04/02 09:55:14;;;;;;;2.35;2.25;;;;;;;19.99;33.87;95560.13;5003723;28;20058;-59
2022/04/02 09:58:02;;;;;;;2.92;2.70;;;;;;;20.02;35.93;95560.00;5004410;28;20058;-64
2022/04/02 10:00:44;;;;;;;3.55;2.75;;;;;;;20.05;33.65;95552.63;5002696;28;20062;-65
2022/04/02 10:03:32;;;;;;;2.20;2.10;;;;;;;20.23;32.10;95561.88;5002746;28;20057;-66
2022/04/02 10:06:25;;;;;;;2.63;2.50;;;;;;;20.45;32.67;95581.41;5002208;28;20060;-65
2022/04/02 10:08:52;;;;;;;5.03;2.35;;;;;;;20.38;32.36;95560.00;5002640;28;20062;-65
2022/04/02 10:11:23;;;;;;;3.45;2.75;;;;;;;20.20;33.88;95571.25;5003151;28;20063;-59
2022/04/02 10:13:52;;;;;;;2.80;2.60;;;;;;;20.11;33.53;95545.13;5003886;28;20050;-62
2022/04/02 10:16:22;;;;;;;2.50;2.40;;;;;;;20.20;33.16;95564.88;5002176;28;20065;-61
2022/04/02 10:18:53;;;;;;;2.42;2.20;;;;;;;20.44;32.71;95558.13;5002650;28;20065;-66
2022/04/02 10:21:20;;;;;;;2.65;2.47;;;;;;;20.69;32.16;95554.94;5003034;28;20050;-59
2022/04/02 10:24:02;;;;;;;2.40;2.25;;;;;;;20.81;31.31;95554.00;5004177;28;20049;-59
2022/04/02 10:26:36;;;;;;;2.38;2.28;;;;;;;20.83;32.56;95547.91;5002066;28;20053;-59
2022/04/02 10:29:11;;;;;;;3.28;2.97;;;;;;;20.79;34.55;95528.34;5004616;28;20442;-65
2022/04/02 10:31:49;;;;;;;3.53;2.75;;;;;;;20.71;34.06;95526.34;5006294;28;20058;-62
2022/04/02 10:34:33;;;;;;;2.65;2.50;;;;;;;20.83;33.25;95539.44;5006266;28;20061;-62
2022/04/02 10:37:08;;;;;;;3.30;3.03;;;;;;;20.94;32.86;95536.91;5006320;28;20083;-65
2022/04/02 10:39:40;;;;;;;2.97;2.78;;;;;;;20.93;33.05;95532.53;5006322;28;20064;-64
2022/04/02 10:42:11;;;;;;;4.20;2.80;;;;;;;20.46;33.85;95470.44;4998962;28;20056;-62
2022/04/02 10:44:58;;;;;;;3.15;2.85;;;;;;;20.98;32.51;95522.72;5021694;28;20050;-65
2022/04/02 10:47:28;;;;;;;3.28;3.05;;;;;;;21.10;34.24;95525.31;5007517;28;20054;-59
2022/04/02 10:50:03;;;;;;;3.28;2.92;;;;;;;21.12;32.17;95500.25;5007222;28;20064;-59
2022/04/02 10:52:31;;;;;;;2.90;2.70;;;;;;;21.12;32.07;95500.25;5007389;28;20045;-64
2022/04/02 10:54:58;;;;;;;3.60;3.30;;;;;;;20.98;32.83;95505.81;5006957;28;20050;-59
2022/04/02 10:57:29;;;;;;;3.00;2.90;;;;;;;21.12;31.84;95497.44;5006978;28;20053;-64
2022/04/02 11:00:03;;;;;;;3.13;2.92;;;;;;;21.15;32.42;95471.13;5007460;28;20058;-65
2022/04/02 11:02:39;;;;;;;2.92;2.83;;;;;;;21.50;32.30;95491.91;5007421;28;20576;-65
2022/04/02 11:05:07;;;;;;;3.20;3.00;;;;;;;21.60;31.00;95490.59;5005572;28;20049;-59
2022/04/02 11:07:43;;;;;;;4.57;2.95;;;;;;;21.66;32.68;95505.59;5006780;28;20054;-65
2022/04/02 11:10:16;;;;;;;3.30;3.00;;;;;;;21.77;32.33;95500.22;5006593;28;20050;-59
2022/04/02 11:12:49;;;;;;;3.28;2.97;;;;;;;22.04;31.43;95474.63;5007051;28;20060;-59
2022/04/02 11:15:24;;;;;;;3.40;3.05;;;;;;;22.61;32.01;95505.44;5005761;28;20049;-61
2022/04/02 11:17:58;;;;;;;3.00;2.80;;;;;;;22.43;29.81;95493.06;5007513;28;20060;-66
2022/04/02 11:20:27;;;;;;;3.45;3.25;;;;;;;22.17;30.89;95443.31;5005447;28;20409;-58
2022/04/02 11:23:02;;;;;;;3.30;3.00;;;;;;;21.77;30.54;95491.75;5007082;28;20054;-66
2022/04/02 11:25:31;;;;;;;3.13;2.92;;;;;;;21.40;30.79;95493.25;5006797;28;20120;-58
2022/04/02 11:28:15;;;;;;;3.70;3.45;;;;;;;21.38;32.36;95467.56;5006760;28;20592;-64
2022/04/02 11:30:50;;;;;;;3.33;3.13;;;;;;;21.28;30.71;95463.25;5004754;28;20076;-66
2022/04/02 11:33:20;;;;;;;3.20;2.90;;;;;;;21.12;30.69;95471.34;5005550;28;20596;-58
2022/04/02 11:35:49;;;;;;;3.40;3.20;;;;;;;20.99;32.01;95460.28;5005372;28;20054;-63
2022/04/02 11:38:20;;;;;;;3.38;3.08;;;;;;;21.49;32.28;95461.38;5006656;28;20085;-59
2022/04/02 11:40:59;;;;;;;8.00;3.95;;;;;;;21.72;31.32;95452.16;5004143;28;20061;-64
2022/04/02 11:43:37;;;;;;;3.38;3.08;;;;;;;22.09;31.59;95442.94;5006224;28;20086;-58
2022/04/02 11:46:09;;;;;;;3.60;3.40;;;;;;;22.40;31.68;95429.13;5004483;28;20050;-64
2022/04/02 11:48:38;;;;;;;3.08;2.97;;;;;;;22.39;31.59;95438.88;5006386;28;20054;-64